Time;durP1;ratioP1;P1;durP2;ratioP2;P2;SDS_P1;SDS_P2;PMS_P1;PMS_P2;Temp;Humidity;BMP_temperature;BMP_pressure;BME280_temperature;BME280_humidity;BME280_pressure;Samples;Min_cycle;Max_cycle;Signal;HPM_P1;HPM_P2
2022/04/21 00:01:09;;;;;;;;;;;;;;;24.98;56.75;96928.64;605596;234;65353;-71
2022/04/21 00:03:36;;;;;;;;;;;;;;;24.98;56.66;96928.64;605593;234;67029;-71
2022/04/21 00:06:04;;;;;;;;;;;;;;;24.98;57.66;96928.64;605600;234;66924;-71
2022/04/21 00:08:31;;;;;;;;;;;;;;;24.96;56.92;96930.83;605650;234;65477;-71
2022/04/21 00:10:59;;;;;;;;;;;;;;;24.96;56.85;96925.45;605543;234;67163;-71
2022/04/21 00:13:26;;;;;;;;;;;;;;;24.95;57.02;96924.66;605615;234;66839;-71
2022/04/21 00:15:54;;;;;;;;;;;;;;;24.94;57.25;96927.66;605638;234;62996;-71
2022/04/21 00:18:21;;;;;;;;;;;;;;;24.93;57.92;96924.16;605605;234;64701;-71
2022/04/21 00:20:49;;;;;;;;;;;;;;;24.93;57.41;96926.05;605583;234;64821;-71
2022/04/21 00:23:29;;;;;;;;;;;;;;;24.92;57.53;96929.84;605594;234;65004;-71
2022/04/21 00:25:58;;;;;;;;;;;;;;;24.91;56.73;96929.05;605569;234;67366;-72
2022/04/21 00:28:26;;;;;;;;;;;;;;;24.90;56.53;96927.44;605605;234;66910;-72
2022/04/21 00:30:53;;;;;;;;;;;;;;;24.90;56.98;96934.72;605567;234;65190;-72
2022/04/21 00:33:21;;;;;;;;;;;;;;;24.89;57.68;96935.83;605587;234;67055;-72
2022/04/21 00:35:49;;;;;;;;;;;;;;;24.87;56.49;96938.00;605609;234;67136;-72
2022/04/21 00:38:16;;;;;;;;;;;;;;;24.86;56.29;96934.53;605555;234;65466;-72
2022/04/21 00:40:44;;;;;;;;;;;;;;;24.88;57.18;96935.03;605622;234;67185;-71
2022/04/21 00:43:11;;;;;;;;;;;;;;;24.85;57.13;96932.91;605581;234;64897;-72
2022/04/21 00:45:39;;;;;;;;;;;;;;;24.84;57.35;96936.70;605576;234;65327;-72
2022/04/21 00:48:07;;;;;;;;;;;;;;;24.83;57.15;96927.06;605616;234;67205;-72
2022/04/21 00:50:36;;;;;;;;;;;;;;;24.83;57.12;96928.92;605539;234;66882;-72
2022/04/21 00:53:04;;;;;;;;;;;;;;;24.83;57.39;96929.75;605579;234;65651;-72
2022/04/21 00:55:32;;;;;;;;;;;;;;;24.80;57.79;96931.14;605612;234;67054;-72
2022/04/21 00:58:01;;;;;;;;;;;;;;;24.80;58.34;96933.83;605588;234;66707;-72
2022/04/21 01:00:28;;;;;;;;;;;;;;;24.79;57.08;96934.91;605560;234;65568;-72
2022/04/21 01:02:57;;;;;;;;;;;;;;;24.79;57.13;96936.80;605628;234;67045;-72
2022/04/21 01:05:33;;;;;;;;;;;;;;;24.78;57.27;96941.38;605587;234;66929;-72
2022/04/21 01:08:01;;;;;;;;;;;;;;;24.78;57.60;96945.97;605590;234;63239;-72
2022/04/21 01:10:30;;;;;;;;;;;;;;;24.77;57.10;96949.73;605554;234;67121;-72
2022/04/21 01:12:59;;;;;;;;;;;;;;;24.77;56.61;96952.42;605564;234;67167;-70
2022/04/21 01:15:26;;;;;;;;;;;;;;;24.75;57.93;96951.94;605593;234;65162;-71
2022/04/21 01:17:54;;;;;;;;;;;;;;;24.74;57.53;96955.70;605602;234;67116;-71
2022/04/21 01:20:22;;;;;;;;;;;;;;;24.73;57.56;96948.74;605565;234;66935;-71
2022/04/21 01:22:50;;;;;;;;;;;;;;;24.73;57.44;96954.91;605563;234;65622;-71
2022/04/21 01:25:20;;;;;;;;;;;;;;;24.71;56.55;96951.72;605594;234;64940;-71
2022/04/21 01:27:52;;;;;;;;;;;;;;;24.72;57.25;96947.95;605646;234;64830;-70
2022/04/21 01:30:19;;;;;;;;;;;;;;;24.70;58.08;96938.59;605340;234;62998;-70
2022/04/21 01:32:52;;;;;;;;;;;;;;;24.71;57.08;96942.86;605602;234;64551;-70
2022/04/21 01:35:17;;;;;;;;;;;;;;;24.69;57.56;96942.35;605447;234;64780;-70
2022/04/21 01:43:17;;;;;;;;;;;;;;;24.67;57.51;96939.19;599026;236;67001;-70
2022/04/21 01:45:45;;;;;;;;;;;;;;;24.65;57.96;96925.25;602113;234;62940;-70
2022/04/21 01:48:13;;;;;;;;;;;;;;;24.64;58.26;96929.83;605603;234;64972;-71
2022/04/21 01:50:40;;;;;;;;;;;;;;;24.63;57.42;96933.59;605565;234;65151;-71
2022/04/21 01:53:08;;;;;;;;;;;;;;;24.64;57.63;96931.72;605568;234;63052;-70
2022/04/21 01:55:35;;;;;;;;;;;;;;;24.63;57.86;96930.91;605569;234;64944;-70
2022/04/21 01:58:03;;;;;;;;;;;;;;;24.62;58.61;96921.26;605620;234;64772;-71
2022/04/21 02:00:30;;;;;;;;;;;;;;;24.61;58.30;96918.86;605565;234;63078;-70
2022/04/21 02:02:58;;;;;;;;;;;;;;;24.60;57.44;96918.06;605565;234;67140;-70
2022/04/21 02:05:25;;;;;;;;;;;;;;;24.60;58.10;96915.38;605563;234;66925;-70
2022/04/21 02:07:53;;;;;;;;;;;;;;;24.60;58.01;96920.75;605640;234;65128;-70
2022/04/21 02:10:26;;;;;;;;;;;;;;;24.58;57.27;96921.06;605665;234;67103;-70
2022/04/21 02:12:51;;;;;;;;;;;;;;;24.57;58.03;96914.08;605474;234;66876;-70
2022/04/21 02:15:19;;;;;;;;;;;;;;;24.57;58.13;96908.70;605609;234;63094;-70
2022/04/21 02:17:47;;;;;;;;;;;;;;;24.56;57.06;96907.13;605620;234;67104;-70
2022/04/21 02:20:15;;;;;;;;;;;;;;;24.55;58.06;96908.23;605608;234;65406;-70
2022/04/21 02:22:43;;;;;;;;;;;;;;;24.55;58.07;96910.09;605594;233;63033;-70
2022/04/21 02:25:11;;;;;;;;;;;;;;;24.54;58.04;96911.20;605655;234;65019;-71
2022/04/21 02:27:40;;;;;;;;;;;;;;;24.52;57.43;96906.11;605562;234;65140;-70
2022/04/21 02:30:08;;;;;;;;;;;;;;;24.52;58.84;96916.06;605594;234;65885;-70
2022/04/21 02:32:36;;;;;;;;;;;;;;;24.51;59.34;96907.21;605553;234;67163;-70
2022/04/21 02:35:04;;;;;;;;;;;;;;;24.50;57.99;96897.57;605613;234;66904;-71
2022/04/21 02:37:38;;;;;;;;;;;;;;;24.49;59.17;96893.27;605680;234;65369;-70
2022/04/21 02:40:06;;;;;;;;;;;;;;;24.49;59.54;96900.54;605584;234;67233;-71
2022/04/21 02:42:34;;;;;;;;;;;;;;;24.48;59.59;96889.00;605629;234;66890;-71
2022/04/21 02:45:04;;;;;;;;;;;;;;;24.47;57.79;96875.86;605648;234;65346;-71
2022/04/21 02:47:30;;;;;;;;;;;;;;;24.46;59.28;96875.06;605623;234;66686;-71
2022/04/21 02:49:58;;;;;;;;;;;;;;;24.45;58.79;96868.11;605667;234;66778;-70
2022/04/21 02:52:26;;;;;;;;;;;;;;;24.45;58.77;96878.86;605594;234;66377;-70
2022/04/21 02:57:40;;;;;;;;;;;;;;;24.43;57.79;96875.63;605600;234;66728;-71
2022/04/21 03:00:08;;;;;;;;;;;;;;;24.43;59.50;96877.53;605618;234;65334;-71
2022/04/21 03:02:35;;;;;;;;;;;;;;;24.42;58.06;96875.91;605593;234;66803;-70
2022/04/21 03:05:03;;;;;;;;;;;;;;;24.41;59.55;96877.02;605687;234;66676;-70
2022/04/21 03:07:30;;;;;;;;;;;;;;;24.40;59.73;96881.59;605604;234;62990;-70
2022/04/21 03:09:58;;;;;;;;;;;;;;;24.39;59.30;96880.02;605581;234;64717;-70
2022/04/21 03:12:29;;;;;;;;;;;;;;;24.39;58.62;96885.39;605618;234;66900;-70
2022/04/21 03:14:57;;;;;;;;;;;;;;;24.39;58.53;96888.08;605605;234;62946;-70
2022/04/21 03:17:25;;;;;;;;;;;;;;;24.38;59.44;96881.09;605602;234;68025;-70
2022/04/21 03:19:52;;;;;;;;;;;;;;;24.37;58.70;96882.20;605614;234;66959;-71
2022/04/21 03:25:07;;;;;;;;;;;;;;;24.35;58.07;96895.11;605612;234;64960;-71
2022/04/21 03:27:34;;;;;;;;;;;;;;;24.34;57.83;96894.33;605627;234;65788;-71
2022/04/21 03:30:05;;;;;;;;;;;;;;;24.34;58.94;96891.64;605608;234;63892;-71
2022/04/21 03:32:33;;;;;;;;;;;;;;;24.33;59.00;96886.55;605642;234;67204;-71
2022/04/21 03:35:01;;;;;;;;;;;;;;;24.33;58.83;96889.23;605615;234;64663;-71
2022/04/21 03:37:28;;;;;;;;;;;;;;;24.32;59.02;96887.66;605595;234;65386;-71
2022/04/21 03:39:56;;;;;;;;;;;;;;;24.31;59.53;96897.61;605554;234;67092;-71
2022/04/21 03:42:25;;;;;;;;;;;;;;;24.31;58.56;96896.81;605545;234;67169;-71
2022/04/21 03:44:52;;;;;;;;;;;;;;;24.31;59.64;96904.88;605644;234;65522;-71
2022/04/21 03:47:20;;;;;;;;;;;;;;;24.30;59.83;96900.57;605579;234;67053;-71
2022/04/21 03:49:48;;;;;;;;;;;;;;;24.29;59.44;96901.67;605568;234;66743;-71
2022/04/21 03:52:17;;;;;;;;;;;;;;;24.28;57.81;96897.38;605591;234;65444;-71
2022/04/21 03:54:45;;;;;;;;;;;;;;;24.28;58.76;96894.69;605574;234;67090;-71
2022/04/21 03:57:12;;;;;;;;;;;;;;;24.27;59.67;96898.48;605611;234;66854;-71
2022/04/21 03:59:40;;;;;;;;;;;;;;;24.26;58.33;96900.38;605651;234;65160;-71
2022/04/21 04:02:07;;;;;;;;;;;;;;;24.26;58.75;96896.89;605555;234;66820;-71
2022/04/21 04:04:37;;;;;;;;;;;;;;;24.26;58.91;96896.89;605604;234;67939;-71
2022/04/21 04:12:37;;;;;;;;;;;;;;;24.24;59.05;96899.07;605573;234;64593;-71
2022/04/21 04:15:06;;;;;;;;;;;;;;;24.21;57.67;96883.55;605634;234;65357;-71
2022/04/21 04:17:33;;;;;;;;;;;;;;;24.21;58.22;96888.92;605593;234;67118;-71
2022/04/21 04:20:01;;;;;;;;;;;;;;;24.20;59.39;96892.69;605592;234;64839;-71
2022/04/21 04:22:29;;;;;;;;;;;;;;;24.20;59.01;96898.05;606221;233;63230;-71
2022/04/21 04:24:56;;;;;;;;;;;;;;;24.19;57.24;96891.89;608302;233;67090;-71
2022/04/21 04:27:24;;;;;;;;;;;;;;;24.17;57.78;96888.70;608314;233;64854;-71
2022/04/21 04:29:52;;;;;;;;;;;;;;;24.18;58.98;96889.52;608253;233;62892;-71
2022/04/21 04:32:20;;;;;;;;;;;;;;;24.19;58.10;96880.36;608241;233;67082;-71
2022/04/21 04:34:47;;;;;;;;;;;;;;;24.17;58.12;96882.53;608273;233;67760;-71
2022/04/21 04:37:15;;;;;;;;;;;;;;;24.18;58.69;96878.78;608301;233;63098;-71
2022/04/21 04:39:43;;;;;;;;;;;;;;;24.15;58.69;96883.63;608264;233;65005;-71
2022/04/21 04:42:16;;;;;;;;;;;;;;;24.14;58.16;96890.11;608318;233;65380;-71
2022/04/21 04:44:44;;;;;;;;;;;;;;;24.13;58.24;96896.55;608283;233;65274;-70
2022/04/21 04:47:12;;;;;;;;;;;;;;;24.12;59.12;96884.23;608149;233;64843;-70
2022/04/21 04:49:39;;;;;;;;;;;;;;;24.13;58.38;96888.50;608192;233;65525;-70
2022/04/21 04:52:07;;;;;;;;;;;;;;;24.12;58.32;96891.49;607697;233;62897;-70
2022/04/21 04:54:34;;;;;;;;;;;;;;;24.11;59.63;96885.30;607610;233;64862;-71
2022/04/21 04:57:02;;;;;;;;;;;;;;;24.11;58.82;96890.67;608262;233;65110;-71
2022/04/21 04:59:29;;;;;;;;;;;;;;;24.10;59.11;96889.09;608275;233;62987;-71
2022/04/21 05:01:57;;;;;;;;;;;;;;;24.10;56.99;96894.45;608177;233;64611;-71
2022/04/21 05:04:25;;;;;;;;;;;;;;;24.10;58.47;96889.09;608276;233;66766;-71
2022/04/21 05:06:54;;;;;;;;;;;;;;;24.09;58.72;96881.31;608293;233;65337;-71
2022/04/21 05:09:23;;;;;;;;;;;;;;;24.08;59.27;96888.58;608078;233;67129;-71
2022/04/21 05:11:52;;;;;;;;;;;;;;;24.08;59.64;96890.47;608272;233;67143;-71
2022/04/21 05:14:21;;;;;;;;;;;;;;;24.07;59.10;96886.20;608287;233;63003;-71
2022/04/21 05:16:49;;;;;;;;;;;;;;;24.06;59.59;96882.73;608270;233;66838;-71
2022/04/21 05:19:17;;;;;;;;;;;;;;;24.06;59.58;96882.73;608298;233;66883;-71
2022/04/21 05:21:45;;;;;;;;;;;;;;;24.06;59.58;96882.73;608158;233;65099;-71
2022/04/21 05:24:13;;;;;;;;;;;;;;;24.05;59.23;96875.75;605659;233;65220;-71
2022/04/21 05:26:41;;;;;;;;;;;;;;;24.06;58.11;96881.91;605591;234;64615;-71
2022/04/21 05:31:56;;;;;;;;;;;;;;;24.05;59.76;96881.11;605597;234;67038;-71
2022/04/21 05:34:24;;;;;;;;;;;;;;;24.05;59.05;96872.27;605354;234;65622;-71
2022/04/21 05:36:52;;;;;;;;;;;;;;;24.03;59.94;96867.18;605580;234;65038;-71
2022/04/21 05:39:20;;;;;;;;;;;;;;;24.05;58.84;96875.75;605567;234;64994;-71
2022/04/21 05:41:48;;;;;;;;;;;;;;;24.04;58.89;96868.80;605546;234;65043;-71
2022/04/21 05:44:15;;;;;;;;;;;;;;;24.05;58.63;96866.90;605515;234;63109;-71
2022/04/21 05:46:43;;;;;;;;;;;;;;;24.06;59.35;96866.63;605534;234;67608;-71
2022/04/21 05:49:11;;;;;;;;;;;;;;;24.05;59.53;96866.90;605583;234;66897;-71
2022/04/21 05:51:39;;;;;;;;;;;;;;;24.05;58.72;96869.59;605588;234;65133;-71
2022/04/21 05:54:07;;;;;;;;;;;;;;;24.04;59.32;96866.11;605542;234;67130;-71
2022/04/21 05:56:35;;;;;;;;;;;;;;;24.04;59.80;96868.00;605559;234;66954;-71
2022/04/21 05:59:03;;;;;;;;;;;;;;;24.04;59.48;96868.00;605521;234;65404;-71
2022/04/21 06:01:31;;;;;;;;;;;;;;;24.04;60.38;96868.00;605015;234;67083;-71
2022/04/21 06:03:59;;;;;;;;;;;;;;;24.04;59.99;96874.16;605592;234;64497;-72
2022/04/21 06:06:26;;;;;;;;;;;;;;;24.04;56.13;96882.22;609329;232;62970;-70
2022/04/21 06:08:57;;;;;;;;;;;;;;;24.04;58.61;96884.91;611609;229;64995;-72
2022/04/21 06:11:24;;;;;;;;;;;;;;;24.04;59.47;96884.11;611690;232;65163;-72
2022/04/21 06:13:52;;;;;;;;;;;;;;;24.03;59.71;96882.50;611776;232;63175;-69
2022/04/21 06:16:19;;;;;;;;;;;;;;;24.04;60.37;96884.91;611712;232;67123;-75
2022/04/21 06:18:47;;;;;;;;;;;;;;;24.06;59.59;96884.59;611773;232;66874;-74
2022/04/21 06:21:14;;;;;;;;;;;;;;;24.06;58.85;96885.41;611693;232;65507;-69
2022/04/21 06:23:42;;;;;;;;;;;;;;;24.06;58.36;96885.41;617220;229;64840;-70
2022/04/21 06:26:10;;;;;;;;;;;;;;;24.08;57.67;96877.84;619182;229;63506;-70
2022/04/21 06:28:37;;;;;;;;;;;;;;;24.10;58.52;96882.92;619184;229;63093;-72
2022/04/21 06:31:05;;;;;;;;;;;;;;;24.10;58.84;96878.34;619127;229;64755;-71
2022/04/21 06:33:33;;;;;;;;;;;;;;;24.13;59.19;96877.76;619118;229;66865;-73
2022/04/21 06:36:03;;;;;;;;;;;;;;;24.14;58.93;96882.05;619183;229;65368;-71
2022/04/21 06:38:30;;;;;;;;;;;;;;;24.15;59.01;96875.58;619100;229;67523;-72
2022/04/21 06:40:57;;;;;;;;;;;;;;;24.16;59.12;96865.63;619211;229;66787;-72
2022/04/21 06:48:57;;;;;;;;;;;;;;;24.20;59.03;96860.46;619169;229;67046;-72
2022/04/21 06:51:27;;;;;;;;;;;;;;;24.24;58.06;96861.48;619191;229;65317;-72
2022/04/21 06:53:55;;;;;;;;;;;;;;;24.24;57.82;96848.05;619301;229;64619;-72
2022/04/21 06:56:23;;;;;;;;;;;;;;;24.26;58.33;96843.19;619223;229;65540;-67
2022/04/21 06:58:51;;;;;;;;;;;;;;;24.27;58.08;96845.56;619157;229;65169;-71
2022/04/21 07:01:18;;;;;;;;;;;;;;;24.29;58.54;96835.33;619068;229;66778;-70
2022/04/21 07:03:46;;;;;;;;;;;;;;;24.31;57.62;96832.36;619257;229;66621;-74
2022/04/21 07:06:13;;;;;;;;;;;;;;;24.33;58.04;96833.62;619222;229;65157;-72
2022/04/21 07:08:41;;;;;;;;;;;;;;;24.33;58.37;96832.84;619214;229;67424;-70
2022/04/21 07:11:08;;;;;;;;;;;;;;;24.35;57.48;96822.59;619255;229;64619;-73
2022/04/21 07:13:36;;;;;;;;;;;;;;;24.35;57.47;96826.08;619184;229;63902;-72
2022/04/21 07:16:03;;;;;;;;;;;;;;;24.38;56.85;96822.80;619147;229;67088;-71
2022/04/21 07:18:34;;;;;;;;;;;;;;;24.40;57.70;96819.03;619188;229;66628;-77
2022/04/21 07:21:03;;;;;;;;;;;;;;;24.41;57.85;96829.46;619172;229;65372;-70
2022/04/21 07:23:31;;;;;;;;;;;;;;;24.39;55.05;96828.98;619185;229;67336;-71
2022/04/21 07:25:58;;;;;;;;;;;;;;;24.41;56.65;96831.36;611992;229;67368;-71
2022/04/21 07:28:26;;;;;;;;;;;;;;;24.42;57.22;96828.39;619101;229;65284;-69
2022/04/21 07:30:53;;;;;;;;;;;;;;;24.43;57.58;96821.91;619168;229;67275;-69
2022/04/21 07:33:21;;;;;;;;;;;;;;;24.44;57.37;96826.20;619216;229;67097;-68
2022/04/21 07:35:48;;;;;;;;;;;;;;;24.46;57.34;96825.92;619173;229;65156;-71
2022/04/21 07:38:16;;;;;;;;;;;;;;;24.45;55.09;96818.97;619183;229;67275;-72
2022/04/21 07:40:43;;;;;;;;;;;;;;;24.44;55.88;96820.83;619055;229;67231;-71
2022/04/21 07:43:11;;;;;;;;;;;;;;;24.45;55.93;96819.77;619197;229;66353;-72
2022/04/21 07:45:41;;;;;;;;;;;;;;;24.46;56.27;96824.03;619190;229;48434;-70
2022/04/21 07:48:08;;;;;;;;;;;;;;;24.46;56.36;96815.97;619166;229;67399;-69
2022/04/21 07:50:36;;;;;;;;;;;;;;;24.46;54.95;96813.28;619013;229;65210;-75
2022/04/21 07:53:18;;;;;;;;;;;;;;;24.48;54.64;96816.48;619229;229;67311;-69
2022/04/21 07:55:46;;;;;;;;;;;;;;;24.50;54.50;96816.98;619134;229;64656;-68
2022/04/21 07:58:14;;;;;;;;;;;;;;;24.52;55.85;96804.02;619211;229;65323;-68
2022/04/21 08:00:41;;;;;;;;;;;;;;;24.55;55.99;96806.14;619155;229;67909;-71
2022/04/21 08:03:10;;;;;;;;;;;;;;;24.57;54.13;96805.83;619059;229;66983;-69
2022/04/21 08:05:38;;;;;;;;;;;;;;;24.58;55.06;96813.59;619222;229;65444;-69
2022/04/21 08:08:08;;;;;;;;;;;;;;;24.59;55.79;96817.86;619207;229;66752;-68
2022/04/21 08:10:34;;;;;;;;;;;;;;;24.60;55.10;96810.59;619132;229;64645;-68
2022/04/21 08:13:02;;;;;;;;;;;;;;;24.62;55.97;96813.00;619272;229;62991;-70
2022/04/21 08:15:30;;;;;;;;;;;;;;;24.62;56.12;96804.94;619158;229;64325;-71
2022/04/21 08:17:59;;;;;;;;;;;;;;;24.62;56.64;96805.72;619194;229;66796;-70
2022/04/21 08:20:28;;;;;;;;;;;;;;;24.64;56.55;96802.75;619164;229;63046;-76
2022/04/21 08:22:55;;;;;;;;;;;;;;;24.64;56.68;96802.75;614893;229;66802;-76
2022/04/21 08:33:39;;;;;;;;;;;;;;;24.58;56.53;96818.97;609289;233;66472;-71
2022/04/21 08:36:07;;;;;;;;;;;;;;;24.57;56.68;96809.30;609263;233;65420;-71
2022/04/21 08:38:35;;;;;;;;;;;;;;;24.58;56.45;96818.15;609202;233;66757;-68
2022/04/21 08:41:07;;;;;;;;;;;;;;;24.58;56.05;96808.22;609274;233;64775;-70
2022/04/21 08:43:36;;;;;;;;;;;;;;;24.58;55.62;96802.84;609295;233;63009;-70
2022/04/21 08:46:04;;;;;;;;;;;;;;;24.62;53.08;96813.00;609243;233;66870;-76
2022/04/21 08:48:39;;;;;;;;;;;;;;;24.65;54.55;96807.81;609235;231;48644;-69
2022/04/21 08:51:04;;;;;;;;;;;;;;;24.68;54.07;96811.79;609114;232;65154;-74
2022/04/21 08:53:32;;;;;;;;;;;;;;;24.69;53.52;96806.13;609160;231;64373;-72
2022/04/21 08:56:00;;;;;;;;;;;;;;;24.70;55.02;96807.71;609196;233;64655;-72
2022/04/21 08:58:28;;;;;;;;;;;;;;;24.71;54.41;96809.29;609325;233;65603;-70
2022/04/21 09:00:57;;;;;;;;;;;;;;;24.71;53.87;96806.60;609168;233;66555;-70
2022/04/21 09:03:24;;;;;;;;;;;;;;;24.74;55.68;96810.59;609258;233;66841;-69
2022/04/21 09:05:52;;;;;;;;;;;;;;;24.72;55.59;96808.22;609213;233;65365;-72
2022/04/21 09:08:20;;;;;;;;;;;;;;;24.71;56.26;96800.44;609122;233;67140;-72
2022/04/21 09:10:49;;;;;;;;;;;;;;;24.71;56.10;96811.19;609306;233;64668;-77
2022/04/21 09:13:17;;;;;;;;;;;;;;;24.70;55.86;96801.55;608931;232;65173;-71
2022/04/21 09:15:45;;;;;;;;;;;;;;;24.70;55.83;96796.96;609173;233;66830;-72
2022/04/21 09:18:16;;;;;;;;;;;;;;;24.71;55.59;96795.85;605990;233;67185;-72
2022/04/21 09:20:44;;;;;;;;;;;;;;;24.72;54.35;96797.47;609206;233;65440;-71
2022/04/21 09:23:12;;;;;;;;;;;;;;;24.72;54.96;96791.30;608240;230;68227;-71
2022/04/21 09:25:51;;;;;;;;;;;;;;;24.72;55.33;96785.92;617189;230;66670;-71
2022/04/21 09:28:26;;;;;;;;;;;;;;;24.71;54.79;96784.31;616993;230;65143;-72
2022/04/21 09:30:57;;;;;;;;;;;;;;;24.71;54.90;96784.31;617072;230;66619;-69
2022/04/21 09:33:28;;;;;;;;;;;;;;;24.70;54.59;96780.84;617117;230;66975;-69
2022/04/21 09:36:00;;;;;;;;;;;;;;;24.70;55.19;96780.05;617091;230;65496;-69
2022/04/21 09:38:27;;;;;;;;;;;;;;;24.70;55.12;96777.36;617033;230;65547;-70
2022/04/21 09:40:59;;;;;;;;;;;;;;;24.70;54.81;96774.67;617188;230;66638;-70
2022/04/21 09:43:28;;;;;;;;;;;;;;;24.70;54.74;96766.61;616762;230;65129;-69
2022/04/21 09:46:09;;;;;;;;;;;;;;;24.70;55.53;96766.61;617062;230;66740;-68
2022/04/21 09:48:37;;;;;;;;;;;;;;;24.71;54.36;96758.23;617082;230;66634;-67
2022/04/21 09:51:10;;;;;;;;;;;;;;;24.72;53.66;96759.05;617132;230;66261;-67
2022/04/21 09:53:51;;;;;;;;;;;;;;;24.74;54.07;96767.59;612686;230;66867;-67
2022/04/21 09:56:20;;;;;;;;;;;;;;;24.74;54.07;96756.84;617080;230;66938;-66
2022/04/21 09:58:48;;;;;;;;;;;;;;;24.75;54.16;96758.45;616741;230;63252;-67
2022/04/21 10:01:16;;;;;;;;;;;;;;;24.75;53.64;96759.23;617158;230;67005;-70
2022/04/21 10:03:44;;;;;;;;;;;;;;;24.76;54.57;96754.66;617094;230;66698;-69
2022/04/21 10:06:13;;;;;;;;;;;;;;;24.77;54.08;96758.92;617163;230;65632;-69
2022/04/21 10:08:42;;;;;;;;;;;;;;;24.77;54.28;96750.86;617169;230;64565;-69
2022/04/21 10:11:10;;;;;;;;;;;;;;;24.77;54.28;96756.23;617059;230;66844;-71
2022/04/21 10:13:37;;;;;;;;;;;;;;;24.77;53.93;96761.61;617165;230;65478;-66
2022/04/21 10:16:07;;;;;;;;;;;;;;;24.75;50.67;96753.86;617144;230;66649;-74
2022/04/21 10:18:35;;;;;;;;;;;;;;;24.76;51.75;96754.66;617049;230;64790;-77
2022/04/21 10:21:03;;;;;;;;;;;;;;;24.75;52.80;96737.73;616433;230;65553;-70
2022/04/21 10:23:31;;;;;;;;;;;;;;;24.78;54.00;96753.25;611088;230;67153;-73
2022/04/21 10:26:00;;;;;;;;;;;;;;;24.79;54.37;96760.21;609240;233;64365;-72
2022/04/21 10:28:37;;;;;;;;;;;;;;;24.79;55.34;96744.09;609309;233;65484;-72
2022/04/21 10:31:09;;;;;;;;;;;;;;;24.81;55.79;96741.11;609303;233;64633;-73
2022/04/21 10:33:55;;;;;;;;;;;;;;;24.82;54.98;96740.00;605848;233;67596;-73
2022/04/21 10:36:47;;;;;;;;;;;;;;;24.83;53.58;96746.98;609252;233;65328;-73
2022/04/21 10:39:19;;;;;;;;;;;;;;;24.84;53.70;96745.87;608943;230;64606;-74
2022/04/21 10:41:48;;;;;;;;;;;;;;;24.85;53.64;96739.39;609322;233;64573;-73
2022/04/21 10:44:17;;;;;;;;;;;;;;;24.86;53.97;96740.21;608361;232;63320;-74
2022/04/21 10:46:44;;;;;;;;;;;;;;;24.86;54.65;96748.28;605290;233;66862;-72
2022/04/21 10:49:13;;;;;;;;;;;;;;;24.86;54.47;96738.31;609280;233;64362;-72
2022/04/21 10:57:17;;;;;;;;;;;;;;;24.89;50.13;96737.70;609145;232;64653;-73
2022/04/21 10:59:52;;;;;;;;;;;;;;;24.96;51.92;96743.47;608990;233;63215;-73
2022/04/21 11:02:20;;;;;;;;;;;;;;;24.98;51.74;96735.88;608628;232;66773;-73
2022/04/21 11:04:49;;;;;;;;;;;;;;;24.99;51.96;96732.11;609349;233;66148;-70
2022/04/21 11:07:16;;;;;;;;;;;;;;;25.01;52.42;96737.95;609039;232;62991;-71
2022/04/21 11:09:50;;;;;;;;;;;;;;;25.02;53.16;96734.19;609392;233;64310;-74
2022/04/21 11:12:18;;;;;;;;;;;;;;;25.04;52.17;96728.48;609339;231;67601;-73
2022/04/21 11:14:45;;;;;;;;;;;;;;;25.07;53.40;96743.22;608987;233;65377;-70
2022/04/21 11:17:12;;;;;;;;;;;;;;;25.09;52.50;96733.75;608773;233;66515;-72
2022/04/21 11:19:44;;;;;;;;;;;;;;;25.10;52.92;96737.23;609103;232;66406;-70
2022/04/21 11:22:12;;;;;;;;;;;;;;;25.12;52.79;96748.48;609970;230;65499;-71
2022/04/21 11:25:01;;;;;;;;;;;;;;;25.13;53.12;96736.65;614950;230;66514;-71
2022/04/21 11:27:29;;;;;;;;;;;;;;;25.15;54.01;96737.14;615064;230;64577;-71
2022/04/21 11:30:00;;;;;;;;;;;;;;;25.14;53.29;96725.57;615054;230;63004;-70
2022/04/21 11:32:28;;;;;;;;;;;;;;;25.16;54.34;96725.31;615110;230;66866;-71
2022/04/21 11:34:58;;;;;;;;;;;;;;;25.16;53.24;96723.41;615171;230;66585;-72
2022/04/21 11:37:27;;;;;;;;;;;;;;;25.17;53.39;96722.30;614814;230;63014;-69
2022/04/21 11:39:54;;;;;;;;;;;;;;;25.18;53.68;96721.22;614391;230;67169;-71
2022/04/21 11:42:30;;;;;;;;;;;;;;;25.17;54.70;96716.92;615051;230;64496;-71
2022/04/21 11:44:55;;;;;;;;;;;;;;;25.17;55.08;96705.38;614959;230;63007;-76
2022/04/21 11:47:22;;;;;;;;;;;;;;;25.17;54.70;96718.82;615157;230;64318;-71
2022/04/21 11:49:55;;;;;;;;;;;;;;;25.16;54.53;96709.97;615085;230;64373;-71
2022/04/21 11:52:29;;;;;;;;;;;;;;;25.16;54.77;96698.42;613970;230;63013;-74
2022/04/21 11:55:04;;;;;;;;;;;;;;;25.16;54.92;96698.42;615059;230;64521;-73
2022/04/21 11:57:44;;;;;;;;;;;;;;;25.16;55.19;96699.20;615062;230;64585;-73
2022/04/21 12:00:12;;;;;;;;;;;;;;;25.16;54.32;96687.66;615084;230;65660;-74
2022/04/21 12:08:13;;;;;;;;;;;;;;;25.17;54.61;96683.86;615180;230;63438;-74
2022/04/21 12:10:42;;;;;;;;;;;;;;;25.17;55.18;96681.96;615087;230;64583;-74
2022/04/21 12:13:10;;;;;;;;;;;;;;;25.17;54.75;96679.27;615084;230;67064;-71
2022/04/21 12:15:39;;;;;;;;;;;;;;;25.17;54.86;96671.20;615129;230;65467;-72
2022/04/21 12:18:08;;;;;;;;;;;;;;;25.19;55.00;96674.39;615043;230;64619;-71
2022/04/21 12:20:37;;;;;;;;;;;;;;;25.20;54.37;96661.73;615161;230;64564;-70
2022/04/21 12:23:07;;;;;;;;;;;;;;;25.22;54.25;96670.30;614505;230;62980;-70
2022/04/21 12:25:34;;;;;;;;;;;;;;;25.23;54.04;96672.66;615097;230;65751;-71
2022/04/21 12:28:05;;;;;;;;;;;;;;;25.25;54.71;96669.68;615086;230;65126;-71
2022/04/21 12:30:33;;;;;;;;;;;;;;;25.27;54.71;96664.01;615045;230;65448;-71
2022/04/21 12:33:00;;;;;;;;;;;;;;;25.28;54.78;96665.58;615022;230;67077;-71
2022/04/21 12:35:44;;;;;;;;;;;;;;;25.29;54.57;96656.41;615136;230;64810;-74
2022/04/21 12:41:02;;;;;;;;;;;;;;;25.32;54.05;96659.30;615021;230;68058;-75
2022/04/21 12:43:30;;;;;;;;;;;;;;;25.34;54.55;96654.37;615073;230;64791;-74
2022/04/21 12:46:01;;;;;;;;;;;;;;;25.36;54.44;96652.18;615068;230;63001;-75
2022/04/21 12:48:28;;;;;;;;;;;;;;;25.36;54.64;96654.87;615002;230;66827;-74
2022/04/21 12:50:56;;;;;;;;;;;;;;;25.37;54.28;96648.41;615150;230;64896;-74
2022/04/21 12:53:36;;;;;;;;;;;;;;;25.39;55.10;96653.47;615040;230;63228;-74
2022/04/21 12:56:10;;;;;;;;;;;;;;;25.40;54.55;96644.28;615028;230;67907;-74
2022/04/21 12:58:38;;;;;;;;;;;;;;;25.42;54.92;96648.25;614803;230;66913;-73
2022/04/21 13:01:07;;;;;;;;;;;;;;;25.43;54.42;96651.76;614947;230;65453;-74
2022/04/21 13:03:34;;;;;;;;;;;;;;;25.43;55.26;96649.86;615078;230;64878;-75
2022/04/21 13:06:01;;;;;;;;;;;;;;;25.44;54.90;96645.27;615120;230;64834;-73
2022/04/21 13:08:29;;;;;;;;;;;;;;;25.43;55.05;96641.00;615020;230;63030;-71
2022/04/21 13:10:57;;;;;;;;;;;;;;;25.43;54.63;96647.16;615173;230;67176;-74
2022/04/21 13:13:29;;;;;;;;;;;;;;;25.42;55.29;96648.25;615105;230;66981;-75
2022/04/21 13:15:57;;;;;;;;;;;;;;;25.40;55.89;96642.41;615036;230;62760;-76
2022/04/21 13:18:24;;;;;;;;;;;;;;;25.39;55.32;96643.49;608498;230;67074;-72
2022/04/21 13:23:37;;;;;;;;;;;;;;;25.37;55.43;96648.41;608118;233;65370;-70
2022/04/21 13:26:05;;;;;;;;;;;;;;;25.37;55.93;96651.09;608195;233;67183;-75
2022/04/21 13:28:33;;;;;;;;;;;;;;;25.37;54.96;96645.72;608180;233;66717;-74
2022/04/21 13:33:47;;;;;;;;;;;;;;;25.37;54.77;96645.72;608085;233;67090;-74
2022/04/21 13:36:16;;;;;;;;;;;;;;;25.37;54.16;96651.09;608263;233;66631;-74
2022/04/21 13:38:44;;;;;;;;;;;;;;;25.38;54.61;96641.91;608132;233;63057;-76
2022/04/21 13:41:12;;;;;;;;;;;;;;;25.36;54.48;96646.80;608235;233;67160;-71
2022/04/21 13:43:39;;;;;;;;;;;;;;;25.39;53.77;96642.70;608136;233;67396;-70
2022/04/21 13:46:07;;;;;;;;;;;;;;;25.39;53.81;96643.49;608203;233;65310;-69
2022/04/21 13:48:36;;;;;;;;;;;;;;;25.41;53.64;96643.98;608274;233;64850;-70